Visit the IPS Meteostar Home Page IPSM San Francisco International Airport FORECAST

San Francisco, California

58

59

58

60

62

62

62

62

45
45
48
48
47
48
48

12 miles away at San Francisco International Airport 23:56 GMT

Weather:

Partly Cloudy

Wind:

CALM

Temperature:

58 ° F

Pressure:

30.26

Dew Point:

43 ° F

Relative Humidity:

57

Feels Like:

58 ° F

Visibility:

10 miles


Aviation Observations:

KSFO 212356Z 00000KT 10SM FEW031 SCT035 14/06 A3024 RMK AO2 SLP240 T01440061 53004 $ =

National Weather Service Forecast:
San Francisco

san francisco-
300 PM PST MON JAN 21 2019

REST OF TODAY

Sunny. Highs in the mid 50s. Northwest winds 10 to 20 mph.

TONIGHT

Mostly clear. Lows in the 40s. North winds 10 to 20 mph.

TUESDAY

Sunny. Highs in the upper 50s. Northwest winds 5 to 15 mph.

TUESDAY NIGHT

Mostly clear. Lows in the mid 40s to lower 50s. northeast winds 5 to 15 mph.

WEDNESDAY

Sunny. Highs around 60. North winds 5 to 15 mph.

WEDNESDAY NIGHT

Mostly clear. Lows in the mid 40s to lower 50s.

THURSDAY

Sunny. Highs in the lower 60s.

THURSDAY NIGHT THROUGH FRIDAY NIGHT

Clear. Lows in the mid to upper 40s. Highs in the lower 60s.

SATURDAY AND SATURDAY NIGHT

Mostly clear. Highs in the lower 60s. Lows in the upper 40s.

SUNDAY

Partly cloudy. Highs in the lower 60s.
temperature / precipitation

san francisco 57 46 60 / 0 0 0
ocean beach 57 46 59 / 0 0 0


Visit the IPS Meteostar Home Page